Time;durP1;ratioP1;P1;durP2;ratioP2;P2;SDS_P1;SDS_P2;PMS_P1;PMS_P2;Temp;Humidity;BMP_temperature;BMP_pressure;BME280_temperature;BME280_humidity;BME280_pressure;Samples;Min_cycle;Max_cycle;Signal;HPM_P1;HPM_P2
2022/04/28 02:26:56;;;;;;;32.33;29.30;;;5.20;99.90;;;;;;6205112;22;20453;-73
2022/04/28 02:29:22;;;;;;;31.33;28.50;;;5.10;99.90;;;;;;6211236;23;20672;-73
2022/04/28 02:31:49;;;;;;;31.43;28.50;;;5.20;99.90;;;;;;6213661;23;20435;-73
2022/04/28 02:34:16;;;;;;;31.43;28.20;;;5.10;99.90;;;;;;6213386;23;20416;-73
2022/04/28 02:36:42;;;;;;;34.13;31.03;;;5.10;99.90;;;;;;6213629;23;20584;-73
2022/04/28 02:39:09;;;;;;;33.30;30.60;;;5.10;99.90;;;;;;6213776;23;20408;-73
2022/04/28 02:41:36;;;;;;;34.43;31.43;;;5.00;99.90;;;;;;6213766;23;20491;-73
2022/04/28 02:44:06;;;;;;;35.77;32.17;;;5.00;99.90;;;;;;6213414;23;20409;-73
2022/04/28 02:46:33;;;;;;;35.17;31.97;;;4.90;99.90;;;;;;6213377;23;20441;-73
2022/04/28 02:49:00;;;;;;;35.67;32.30;;;4.80;99.90;;;;;;6213251;23;20440;-73
2022/04/28 02:51:27;;;;;;;34.83;31.60;;;4.80;99.90;;;;;;6213588;23;20416;-73
2022/04/28 02:53:54;;;;;;;36.60;33.17;;;4.90;99.90;;;;;;6213292;23;20417;-73
2022/04/28 02:56:21;;;;;;;35.43;32.27;;;4.80;99.90;;;;;;6212876;23;20411;-73
2022/04/28 02:58:49;;;;;;;37.47;33.87;;;4.80;99.90;;;;;;6213434;23;20413;-74
2022/04/28 03:01:17;;;;;;;35.67;32.30;;;4.70;99.90;;;;;;6213214;23;20414;-74
2022/04/28 03:03:44;;;;;;;39.40;35.57;;;4.80;99.90;;;;;;6213102;23;20412;-73
2022/04/28 03:11:41;;;;;;;42.30;38.07;;;4.80;99.90;;;;;;6213596;23;20424;-74
2022/04/28 03:14:10;;;;;;;39.67;36.07;;;4.80;99.90;;;;;;6213972;23;20415;-75
2022/04/28 03:16:38;;;;;;;40.87;36.67;;;4.70;99.90;;;;;;6213600;23;20743;-75
2022/04/28 03:19:05;;;;;;;40.70;36.90;;;4.70;99.90;;;;;;6213396;23;20428;-76
2022/04/28 03:21:32;;;;;;;40.57;36.93;;;4.60;99.90;;;;;;6213020;23;20904;-75
2022/04/28 03:23:59;;;;;;;39.70;35.83;;;4.60;99.90;;;;;;6213332;23;20409;-75
2022/04/28 03:26:28;;;;;;;40.17;35.87;;;4.60;99.90;;;;;;6213121;23;20440;-75
2022/04/28 03:28:55;;;;;;;39.37;35.53;;;4.70;99.90;;;;;;6213307;23;21004;-74
2022/04/28 03:31:22;;;;;;;40.73;36.80;;;4.70;99.90;;;;;;6213177;23;20408;-74
2022/04/28 03:33:52;;;;;;;40.00;36.20;;;4.70;99.90;;;;;;6213595;23;20796;-75
2022/04/28 03:39:02;;;;;;;38.47;34.97;;;4.90;99.90;;;;;;6213161;23;20440;-74
2022/04/28 03:41:29;;;;;;;38.90;35.50;;;4.80;99.90;;;;;;6213130;23;20409;-74
2022/04/28 03:43:56;;;;;;;38.77;35.27;;;4.80;99.90;;;;;;6213519;23;20420;-74
2022/04/28 03:46:24;;;;;;;38.40;35.03;;;4.70;99.90;;;;;;6213841;23;20411;-75
2022/04/28 03:48:52;;;;;;;40.47;36.80;;;4.60;99.90;;;;;;6213173;23;20441;-74
2022/04/28 03:51:19;;;;;;;39.90;36.10;;;4.60;99.90;;;;;;6213127;23;20413;-75
2022/04/28 03:53:46;;;;;;;40.93;37.00;;;4.60;99.90;;;;;;6212736;23;20946;-75
2022/04/28 03:56:12;;;;;;;38.33;34.77;;;4.60;99.90;;;;;;6212992;23;20923;-75
2022/04/28 03:58:39;;;;;;;40.93;36.90;;;4.60;99.90;;;;;;6213328;23;20743;-74
2022/04/28 04:01:06;;;;;;;39.53;35.80;;;4.60;99.90;;;;;;6212781;23;20428;-74
2022/04/28 04:03:32;;;;;;;42.50;38.30;;;4.60;99.90;;;;;;6213014;23;20609;-74
2022/04/28 04:06:00;;;;;;;39.80;36.00;;;4.60;99.90;;;;;;6213135;23;20411;-74
2022/04/28 04:08:27;;;;;;;40.80;36.50;;;4.60;99.90;;;;;;6213180;23;20782;-74
2022/04/28 04:10:54;;;;;;;42.27;38.43;;;4.60;99.90;;;;;;6213233;23;20409;-74
2022/04/28 04:13:20;;;;;;;40.70;36.87;;;4.70;99.90;;;;;;6212870;23;20409;-75
2022/04/28 04:15:50;;;;;;;41.33;36.87;;;4.70;99.90;;;;;;6212614;23;20897;-74
2022/04/28 04:18:17;;;;;;;41.20;37.50;;;4.70;99.90;;;;;;6212424;23;20447;-74
2022/04/28 04:20:44;;;;;;;41.13;37.27;;;4.70;99.90;;;;;;6212872;23;20411;-76
2022/04/28 04:23:12;;;;;;;41.10;36.97;;;4.70;99.90;;;;;;6212896;23;20401;-75
2022/04/28 04:25:38;;;;;;;41.23;37.30;;;4.60;99.90;;;;;;6212644;23;20932;-75
2022/04/28 04:28:05;;;;;;;41.97;38.23;;;4.70;99.90;;;;;;6212660;23;20428;-76
2022/04/28 04:33:16;;;;;;;43.43;39.10;;;4.70;99.90;;;;;;6212561;23;20740;-74
2022/04/28 04:35:43;;;;;;;41.63;37.83;;;4.70;99.90;;;;;;6212868;23;20420;-75
2022/04/28 04:38:10;;;;;;;41.90;37.87;;;4.70;99.90;;;;;;6213035;23;20408;-75
2022/04/28 04:40:38;;;;;;;43.00;39.13;;;4.70;99.90;;;;;;6212872;23;20412;-74
2022/04/28 04:43:09;;;;;;;43.43;38.90;;;4.70;99.90;;;;;;6212475;23;20405;-75
2022/04/28 04:45:35;;;;;;;44.30;40.10;;;4.70;99.90;;;;;;6212963;23;20398;-74
2022/04/28 04:48:02;;;;;;;41.33;37.83;;;4.80;99.90;;;;;;6212715;23;20413;-75
2022/04/28 04:50:29;;;;;;;44.43;40.27;;;4.80;99.90;;;;;;6212743;23;20409;-74
2022/04/28 04:52:55;;;;;;;42.80;38.87;;;4.90;99.90;;;;;;6212730;23;20803;-75
2022/04/28 04:55:22;;;;;;;43.63;39.37;;;5.00;99.90;;;;;;6212855;23;20405;-74
2022/04/28 04:57:50;;;;;;;44.47;40.10;;;5.10;99.90;;;;;;6212371;23;20421;-73
2022/04/28 05:00:17;;;;;;;52.60;44.53;;;5.20;99.90;;;;;;6206629;23;20428;-74
2022/04/28 05:02:44;;;;;;;67.17;47.87;;;5.60;99.90;;;;;;6208437;23;20482;-75
2022/04/28 05:05:11;;;;;;;72.33;54.00;;;6.10;99.90;;;;;;6209526;23;20418;-75
2022/04/28 05:07:37;;;;;;;80.47;56.40;;;6.50;99.90;;;;;;6209644;23;20416;-76
2022/04/28 05:10:05;;;;;;;86.20;57.97;;;6.90;99.90;;;;;;6211457;23;20432;-77
2022/04/28 05:12:31;;;;;;;90.97;59.40;;;7.20;99.90;;;;;;6212870;23;20399;-80
2022/04/28 05:15:00;;;;;;;81.13;58.73;;;7.50;99.90;;;;;;6213419;23;20404;-78
2022/04/28 05:17:26;;;;;;;79.90;58.57;;;7.90;99.90;;;;;;6213225;23;20405;-78
2022/04/28 05:19:56;;;;;;;64.90;55.67;;;8.30;99.90;;;;;;6213253;23;20408;-77
2022/04/28 05:22:23;;;;;;;65.50;54.13;;;8.70;99.90;;;;;;6213171;23;20435;-77
2022/04/28 05:24:49;;;;;;;56.77;50.87;;;8.90;99.90;;;;;;6212275;23;20435;-76
2022/04/28 05:27:16;;;;;;;52.50;47.70;;;9.10;99.90;;;;;;6212230;23;20970;-77
2022/04/28 05:29:43;;;;;;;49.90;45.27;;;9.30;99.90;;;;;;6212196;23;20453;-76
2022/04/28 05:32:11;;;;;;;44.97;41.10;;;9.60;99.90;;;;;;6212844;23;20748;-74
2022/04/28 05:34:38;;;;;;;41.43;38.13;;;9.90;99.90;;;;;;6212489;23;20410;-75
2022/04/28 05:37:06;;;;;;;36.10;33.40;;;10.10;99.90;;;;;;6212620;23;20412;-75
2022/04/28 05:39:33;;;;;;;32.30;29.43;;;10.40;99.90;;;;;;6212467;23;20408;-75
2022/04/28 05:42:01;;;;;;;30.57;28.07;;;10.70;99.90;;;;;;6212607;23;20408;-75
2022/04/28 05:47:13;;;;;;;24.33;22.70;;;11.00;99.90;;;;;;6207684;23;20473;-74
2022/04/28 05:49:40;;;;;;;24.70;23.00;;;11.30;99.90;;;;;;6212395;23;20524;-75
2022/04/28 05:52:07;;;;;;;22.90;20.80;;;11.60;99.90;;;;;;6212322;23;20416;-74
2022/04/28 05:54:35;;;;;;;24.63;22.50;;;11.90;99.90;;;;;;6211929;23;20443;-74
2022/04/28 05:57:02;;;;;;;22.60;20.90;;;12.20;99.90;;;;;;6212316;23;20886;-76
2022/04/28 05:59:29;;;;;;;21.97;20.37;;;12.40;99.90;;;;;;6212982;23;20717;-81
2022/04/28 06:01:56;;;;;;;21.10;19.43;;;12.80;99.90;;;;;;6213197;23;20438;-82
2022/04/28 06:04:25;;;;;;;19.80;18.47;;;12.90;99.90;;;;;;6216402;23;20420;-83
2022/04/28 06:06:52;;;;;;;21.83;20.13;;;13.20;99.90;;;;;;6215892;23;20725;-85
2022/04/28 06:09:19;;;;;;;21.10;19.60;;;13.70;99.90;;;;;;6214373;23;20448;-77
2022/04/28 06:11:54;;;;;;;20.53;18.90;;;14.50;99.90;;;;;;6213090;23;20749;-74
2022/04/28 06:14:20;;;;;;;20.70;19.20;;;15.00;99.90;;;;;;6207682;23;20416;-75
2022/04/28 06:16:47;;;;;;;21.67;19.67;;;15.40;99.90;;;;;;6211423;23;20424;-73
2022/04/28 06:19:14;;;;;;;21.17;19.47;;;15.40;99.90;;;;;;6211999;23;20771;-75
2022/04/28 06:21:42;;;;;;;21.90;20.13;;;15.60;99.90;;;;;;6211985;23;20495;-73
2022/04/28 06:24:08;;;;;;;21.13;19.30;;;15.90;99.90;;;;;;6212477;23;20726;-75
2022/04/28 06:26:35;;;;;;;20.63;19.20;;;15.90;99.90;;;;;;6211429;23;20951;-75
2022/04/28 06:29:02;;;;;;;20.60;19.10;;;16.10;99.90;;;;;;6211974;23;20444;-74
2022/04/28 06:31:28;;;;;;;20.20;18.70;;;16.30;99.90;;;;;;6212057;23;20424;-75
2022/04/28 06:33:55;;;;;;;22.77;21.17;;;16.10;99.90;;;;;;6212080;23;20416;-75
2022/04/28 06:36:22;;;;;;;23.47;21.70;;;16.30;99.90;;;;;;6211771;23;20405;-73
2022/04/28 06:38:50;;;;;;;24.67;22.77;;;16.40;99.90;;;;;;6211900;23;20412;-75
2022/04/28 06:41:16;;;;;;;24.33;22.37;;;16.50;99.90;;;;;;6211304;23;20413;-75
2022/04/28 06:43:43;;;;;;;23.93;22.03;;;16.70;99.60;;;;;;6213678;23;20427;-75
2022/04/28 06:46:16;;;;;;;24.13;22.43;;;17.10;99.30;;;;;;6214103;23;20436;-76
2022/04/28 06:48:42;;;;;;;24.27;22.17;;;17.20;98.60;;;;;;6213828;23;20435;-76
2022/04/28 06:51:09;;;;;;;21.80;20.20;;;17.90;97.60;;;;;;6213801;23;20499;-76
2022/04/28 06:53:37;;;;;;;21.33;19.73;;;18.20;96.80;;;;;;6213711;23;20404;-76
2022/04/28 06:56:06;;;;;;;23.57;21.97;;;18.50;96.40;;;;;;6213400;23;20408;-76
2022/04/28 06:58:33;;;;;;;24.17;22.37;;;18.60;95.60;;;;;;6213544;23;20417;-76
2022/04/28 07:01:00;;;;;;;26.10;24.00;;;18.70;94.70;;;;;;6213562;23;20412;-73
2022/04/28 07:03:26;;;;;;;24.03;22.43;;;19.30;93.70;;;;;;6213529;23;20416;-76
2022/04/28 07:05:53;;;;;;;23.23;21.70;;;19.60;93.00;;;;;;6213322;23;20416;-73
2022/04/28 07:08:21;;;;;;;23.83;21.83;;;20.10;91.80;;;;;;6213523;23;20443;-73
2022/04/28 07:10:47;;;;;;;24.03;22.33;;;20.30;91.60;;;;;;6213306;23;20519;-73
2022/04/28 07:13:16;;;;;;;24.37;22.10;;;20.70;90.50;;;;;;6210041;23;20589;-73
2022/04/28 07:15:43;;;;;;;25.33;23.53;;;20.90;90.10;;;;;;6213503;23;20409;-73
2022/04/28 07:18:11;;;;;;;23.13;21.37;;;21.50;87.60;;;;;;6213517;23;20408;-75
2022/04/28 07:20:39;;;;;;;23.37;21.60;;;20.60;90.20;;;;;;6213109;23;20412;-75
2022/04/28 07:23:06;;;;;;;21.13;19.83;;;20.40;89.40;;;;;;6213049;23;20791;-75
2022/04/28 07:25:32;;;;;;;19.90;18.80;;;20.70;88.60;;;;;;6212647;23;20740;-74
2022/04/28 07:27:59;;;;;;;21.60;20.20;;;21.10;86.70;;;;;;6213165;23;20403;-75
2022/04/28 07:30:27;;;;;;;21.83;20.30;;;21.20;85.90;;;;;;6213383;23;20444;-75
2022/04/28 07:32:54;;;;;;;21.03;19.47;;;21.80;84.00;;;;;;6210864;23;20908;-74
2022/04/28 07:35:23;;;;;;;21.33;19.80;;;21.50;85.00;;;;;;6212582;23;20919;-74
2022/04/28 07:37:50;;;;;;;21.17;19.87;;;21.40;85.10;;;;;;6213009;23;20413;-75
2022/04/28 07:40:17;;;;;;;20.97;19.67;;;21.70;84.10;;;;;;6212736;23;20405;-74
2022/04/28 07:42:44;;;;;;;21.37;19.97;;;22.20;82.10;;;;;;6212916;23;20772;-74
2022/04/28 07:45:11;;;;;;;23.33;21.37;;;22.30;81.90;;;;;;6211217;23;20463;-75
2022/04/28 07:47:39;;;;;;;22.17;20.73;;;22.10;81.70;;;;;;6213029;23;20416;-75
2022/04/28 07:50:07;;;;;;;23.00;21.43;;;22.40;82.50;;;;;;6212342;23;20449;-74
2022/04/28 07:52:33;;;;;;;22.07;20.63;;;22.80;79.70;;;;;;6212790;23;20401;-75
2022/04/28 07:55:00;;;;;;;20.10;18.70;;;23.40;77.10;;;;;;6212257;23;20400;-74
2022/04/28 07:57:27;;;;;;;21.30;19.90;;;23.40;75.80;;;;;;6212974;23;20927;-75
2022/04/28 07:59:53;;;;;;;21.00;19.53;;;23.60;76.60;;;;;;6212574;23;20407;-75
2022/04/28 08:02:20;;;;;;;20.87;19.37;;;23.80;75.80;;;;;;6212765;23;20409;-75
2022/04/28 08:04:48;;;;;;;19.63;18.43;;;24.00;74.30;;;;;;6212757;23;20416;-75
2022/04/28 08:07:15;;;;;;;21.47;19.80;;;23.60;74.90;;;;;;6213044;23;20413;-74
2022/04/28 08:09:42;;;;;;;18.90;17.70;;;23.90;73.80;;;;;;6212815;23;20820;-74
2022/04/28 08:12:09;;;;;;;19.00;17.80;;;24.00;72.80;;;;;;6212597;23;20404;-74
2022/04/28 08:14:37;;;;;;;19.43;17.93;;;24.00;72.20;;;;;;6212316;23;20412;-74
2022/04/28 08:17:04;;;;;;;17.73;16.83;;;24.70;68.60;;;;;;6212248;23;20508;-74
2022/04/28 08:19:32;;;;;;;16.77;15.87;;;25.50;68.50;;;;;;6212529;23;20405;-74
2022/04/28 08:22:00;;;;;;;17.40;16.47;;;26.00;65.50;;;;;;6212479;23;20452;-74
2022/04/28 08:24:27;;;;;;;17.70;16.80;;;26.00;63.20;;;;;;6212613;23;20435;-75
2022/04/28 08:26:54;;;;;;;18.17;17.13;;;26.00;63.60;;;;;;6211668;23;20441;-75
2022/04/28 08:29:21;;;;;;;17.33;16.20;;;25.90;62.80;;;;;;6212251;23;20472;-76
2022/04/28 08:31:49;;;;;;;17.93;16.80;;;25.90;62.80;;;;;;6212350;23;20415;-74
2022/04/28 08:34:17;;;;;;;16.90;16.00;;;25.60;62.20;;;;;;6213083;23;20413;-74
2022/04/28 08:36:45;;;;;;;17.63;16.63;;;25.50;63.50;;;;;;6212519;23;20470;-76
2022/04/28 08:39:13;;;;;;;17.43;16.53;;;25.60;62.20;;;;;;6210350;23;20417;-75
2022/04/28 08:41:42;;;;;;;17.07;16.17;;;26.00;60.90;;;;;;6210840;23;20413;-75
2022/04/28 08:44:15;;;;;;;17.23;16.23;;;26.20;58.70;;;;;;6212430;23;20419;-75
2022/04/28 08:46:51;;;;;;;18.23;17.27;;;26.50;58.00;;;;;;6212808;23;20393;-75
2022/04/28 08:49:19;;;;;;;16.07;15.17;;;26.80;58.50;;;;;;6212220;23;20439;-75
2022/04/28 08:51:45;;;;;;;16.50;15.70;;;26.80;57.50;;;;;;6212520;23;20412;-76
2022/04/28 08:54:15;;;;;;;15.50;14.70;;;27.40;56.10;;;;;;6212431;23;20415;-76
2022/04/28 08:56:42;;;;;;;16.20;15.50;;;26.90;55.60;;;;;;6212607;23;20413;-76
2022/04/28 08:59:09;;;;;;;16.87;16.00;;;26.60;56.50;;;;;;6212475;23;20412;-75
2022/04/28 09:01:35;;;;;;;15.90;15.10;;;26.90;55.50;;;;;;6212851;23;20409;-76
2022/04/28 09:04:04;;;;;;;15.83;14.93;;;26.80;54.30;;;;;;6212151;23;20731;-76
2022/04/28 09:06:34;;;;;;;15.53;14.83;;;26.10;53.40;;;;;;6211789;23;20409;-75
2022/04/28 09:09:04;;;;;;;14.87;13.87;;;25.30;54.90;;;;;;6211961;23;20474;-74
2022/04/28 09:11:34;;;;;;;15.47;14.67;;;24.80;52.40;;;;;;6212728;23;20378;-77
2022/04/28 09:14:12;;;;;;;14.40;13.70;;;24.20;52.80;;;;;;6212554;23;20440;-75
2022/04/28 09:16:41;;;;;;;14.43;13.70;;;23.50;54.90;;;;;;6212716;23;20393;-76
2022/04/28 09:19:08;;;;;;;13.20;12.60;;;23.20;52.20;;;;;;6213552;23;20409;-77
2022/04/28 09:21:35;;;;;;;13.70;13.10;;;23.20;52.00;;;;;;6212137;23;20752;-76
2022/04/28 09:24:03;;;;;;;14.27;13.67;;;22.60;52.50;;;;;;6211455;23;20411;-76
2022/04/28 09:26:33;;;;;;;14.10;13.50;;;21.80;50.60;;;;;;6211546;23;20433;-76
2022/04/28 09:29:02;;;;;;;13.90;13.30;;;21.80;51.90;;;;;;6211835;23;20400;-76
2022/04/28 09:31:30;;;;;;;13.90;13.20;;;21.20;54.20;;;;;;6211625;23;20441;-76
2022/04/28 09:34:08;;;;;;;12.57;12.07;;;20.10;56.50;;;;;;6212094;23;20416;-76
2022/04/28 09:36:35;;;;;;;13.40;12.70;;;20.50;56.90;;;;;;6211943;23;20752;-76
2022/04/28 09:39:01;;;;;;;13.00;12.50;;;20.70;53.80;;;;;;6211789;23;20409;-76
2022/04/28 09:44:16;;;;;;;13.70;13.00;;;21.00;55.10;;;;;;6211988;23;20461;-76
2022/04/28 09:46:43;;;;;;;14.43;13.67;;;21.60;54.40;;;;;;6211802;23;20408;-75
2022/04/28 09:49:11;;;;;;;13.47;12.73;;;21.40;53.10;;;;;;6212253;23;20405;-76
2022/04/28 09:51:39;;;;;;;12.63;11.93;;;21.40;53.40;;;;;;6212367;23;20444;-76
2022/04/28 09:54:08;;;;;;;11.87;11.30;;;21.80;51.90;;;;;;6211562;23;20409;-76
2022/04/28 09:56:37;;;;;;;14.53;13.83;;;21.60;52.30;;;;;;6211918;23;20942;-76
2022/04/28 09:59:05;;;;;;;12.97;12.30;;;21.90;50.40;;;;;;6211947;23;20427;-75
2022/04/28 10:01:34;;;;;;;13.40;12.80;;;22.00;52.00;;;;;;6211844;23;20483;-75
2022/04/28 10:04:01;;;;;;;13.23;12.50;;;22.40;50.00;;;;;;6211240;23;20868;-76
2022/04/28 10:06:33;;;;;;;14.60;13.90;;;22.30;49.20;;;;;;6211471;23;20884;-76
2022/04/28 10:09:02;;;;;;;13.53;13.03;;;23.50;49.30;;;;;;6211564;23;20397;-76
2022/04/28 10:11:29;;;;;;;13.87;13.27;;;24.60;47.50;;;;;;6211231;23;20447;-75
2022/04/28 10:13:59;;;;;;;14.30;13.20;;;24.60;46.20;;;;;;6211905;23;20413;-76
2022/04/28 10:16:26;;;;;;;13.23;12.73;;;24.70;46.20;;;;;;6212105;23;20423;-76
2022/04/28 10:19:01;;;;;;;13.10;12.50;;;24.60;46.40;;;;;;6214068;23;20405;-76
2022/04/28 10:21:33;;;;;;;13.60;13.00;;;25.20;45.50;;;;;;6213173;23;20855;-76
2022/04/28 10:32:55;;;;;;;14.90;14.20;;;25.70;41.50;;;;;;6213668;23;20863;-75
2022/04/28 10:35:41;;;;;;;14.83;14.20;;;25.50;42.00;;;;;;6213706;23;20389;-76
2022/04/28 10:38:19;;;;;;;15.10;14.50;;;25.60;43.40;;;;;;6213952;23;20707;-76
2022/04/28 10:40:55;;;;;;;13.77;13.17;;;24.90;42.90;;;;;;6213425;23;20686;-76
2022/04/28 10:43:25;;;;;;;14.73;14.13;;;24.50;44.30;;;;;;6213519;23;20393;-76
2022/04/28 10:45:53;;;;;;;14.30;13.70;;;24.30;44.60;;;;;;6213488;23;20413;-76
2022/04/28 10:48:31;;;;;;;14.47;13.83;;;24.20;45.40;;;;;;6213441;23;20431;-76
2022/04/28 10:51:13;;;;;;;14.57;13.97;;;24.20;45.80;;;;;;6213425;23;20475;-76
2022/04/28 10:54:07;;;;;;;14.53;13.83;;;23.80;45.50;;;;;;6213786;23;20415;-76
2022/04/28 10:57:06;;;;;;;15.20;14.40;;;23.60;45.60;;;;;;6213430;23;20417;-76
2022/04/28 10:59:35;;;;;;;14.20;13.60;;;23.60;44.40;;;;;;6213210;23;20934;-76
2022/04/28 11:02:51;;;;;;;14.10;13.60;;;24.70;43.80;;;;;;6210906;23;20412;-76
2022/04/28 11:05:32;;;;;;;14.03;13.43;;;25.40;43.40;;;;;;6213374;23;20559;-76
2022/04/28 11:08:01;;;;;;;14.93;14.20;;;26.40;42.10;;;;;;6213084;23;20884;-75
2022/04/28 11:10:28;;;;;;;14.20;13.60;;;26.50;42.40;;;;;;6213007;23;20445;-76
2022/04/28 11:12:55;;;;;;;14.27;13.67;;;25.90;43.20;;;;;;6213531;23;20435;-76
2022/04/28 11:15:23;;;;;;;15.00;14.30;;;24.90;43.50;;;;;;6213234;23;20964;-76
2022/04/28 11:17:50;;;;;;;14.63;14.03;;;25.00;45.00;;;;;;6212901;23;20412;-76
2022/04/28 11:20:20;;;;;;;14.57;13.87;;;26.00;43.10;;;;;;6213116;23;20756;-76
2022/04/28 11:22:48;;;;;;;14.20;13.60;;;25.40;44.10;;;;;;6213036;23;20416;-76
2022/04/28 11:25:19;;;;;;;14.23;13.60;;;25.00;44.00;;;;;;6213049;23;20443;-74
2022/04/28 11:27:49;;;;;;;14.10;13.50;;;24.70;44.10;;;;;;6213010;23;20392;-76
2022/04/28 11:30:18;;;;;;;13.83;13.23;;;24.80;42.60;;;;;;6213163;23;20451;-76
2022/04/28 11:32:50;;;;;;;14.80;14.00;;;25.50;41.50;;;;;;6213116;23;20413;-73
2022/04/28 11:35:17;;;;;;;14.63;13.83;;;26.40;41.20;;;;;;6213176;23;20617;-74
2022/04/28 11:37:44;;;;;;;14.20;13.50;;;27.20;40.40;;;;;;6213445;23;20409;-74
2022/04/28 11:40:13;;;;;;;14.87;13.87;;;27.20;39.50;;;;;;6213401;23;20405;-74
2022/04/28 11:42:42;;;;;;;14.60;14.00;;;27.10;40.60;;;;;;6213556;23;20416;-74
2022/04/28 11:45:10;;;;;;;13.70;13.20;;;26.00;39.50;;;;;;6212943;23;20405;-76
2022/04/28 11:47:42;;;;;;;14.50;13.80;;;25.60;42.00;;;;;;6213015;23;20413;-74
2022/04/28 11:50:18;;;;;;;13.97;13.37;;;25.70;41.90;;;;;;6211072;23;20783;-76
2022/04/28 11:52:45;;;;;;;14.17;13.57;;;25.50;41.60;;;;;;6212427;23;20895;-76
2022/04/28 11:55:12;;;;;;;12.53;12.03;;;24.80;40.60;;;;;;6212823;23;20409;-76
2022/04/28 11:57:40;;;;;;;13.80;13.20;;;24.80;42.70;;;;;;6213372;23;20491;-77
2022/04/28 12:00:12;;;;;;;14.17;13.37;;;24.70;42.50;;;;;;6213413;23;20423;-76
2022/04/28 12:02:41;;;;;;;13.40;12.80;;;24.80;42.70;;;;;;6213128;23;20402;-76
2022/04/28 12:05:16;;;;;;;13.73;13.03;;;24.70;41.40;;;;;;6212871;23;20416;-75
2022/04/28 12:07:50;;;;;;;14.30;13.57;;;24.30;42.30;;;;;;6212262;23;20423;-75
2022/04/28 12:15:54;;;;;;;12.80;12.27;;;25.10;41.10;;;;;;6213153;23;20420;-74
2022/04/28 12:21:17;;;;;;;12.87;12.37;;;25.20;41.80;;;;;;6212700;23;20902;-74
2022/04/28 12:23:48;;;;;;;12.40;11.90;;;25.00;41.30;;;;;;6212194;23;20389;-74
2022/04/28 12:26:15;;;;;;;12.87;12.33;;;25.20;40.60;;;;;;6212505;23;20495;-74
2022/04/28 12:28:44;;;;;;;13.60;12.90;;;25.00;41.40;;;;;;6212550;23;20409;-74
2022/04/28 12:31:14;;;;;;;13.07;12.43;;;24.90;42.60;;;;;;6212650;23;20975;-74
2022/04/28 12:33:42;;;;;;;12.93;12.43;;;24.40;42.90;;;;;;6212949;23;20393;-74
2022/04/28 12:36:14;;;;;;;14.00;13.30;;;25.00;41.40;;;;;;6212520;23;20893;-74
2022/04/28 12:38:44;;;;;;;14.53;13.93;;;25.80;40.20;;;;;;6212735;23;20475;-74
2022/04/28 12:41:16;;;;;;;13.97;13.27;;;26.70;40.10;;;;;;6212552;23;20396;-74
2022/04/28 12:43:46;;;;;;;13.60;13.10;;;26.00;39.70;;;;;;6212365;23;20415;-73
2022/04/28 12:46:15;;;;;;;13.77;13.17;;;25.50;39.80;;;;;;6212834;23;20451;-74
2022/04/28 12:48:42;;;;;;;13.50;12.90;;;25.20;40.40;;;;;;6212960;23;20408;-73
2022/04/28 12:51:14;;;;;;;13.27;12.70;;;25.20;39.60;;;;;;6212883;23;20444;-74
2022/04/28 12:53:42;;;;;;;13.93;13.23;;;25.50;39.70;;;;;;6212264;23;20393;-73
2022/04/28 12:56:12;;;;;;;13.70;13.10;;;25.10;38.90;;;;;;6212891;23;20417;-73
2022/04/28 12:58:40;;;;;;;13.70;13.00;;;24.30;41.30;;;;;;6212962;23;20404;-73
2022/04/28 13:01:12;;;;;;;13.10;12.50;;;24.10;40.70;;;;;;6212359;23;20469;-73
2022/04/28 13:03:41;;;;;;;13.50;12.90;;;24.10;41.60;;;;;;6212665;23;20740;-76
2022/04/28 13:06:08;;;;;;;13.20;12.60;;;23.70;41.50;;;;;;6212373;23;20467;-73
2022/04/28 13:08:35;;;;;;;13.73;13.20;;;23.80;41.60;;;;;;6212145;23;20405;-73
2022/04/28 13:11:03;;;;;;;14.50;13.67;;;24.30;42.80;;;;;;6212116;23;20444;-73
2022/04/28 13:13:30;;;;;;;12.50;11.97;;;24.30;41.80;;;;;;6212186;23;20413;-73
2022/04/28 13:15:56;;;;;;;13.50;12.90;;;24.50;41.30;;;;;;6212442;23;20638;-73
2022/04/28 13:18:23;;;;;;;13.83;13.10;;;25.30;40.70;;;;;;6212220;23;20491;-74
2022/04/28 13:20:51;;;;;;;13.50;13.00;;;25.60;39.90;;;;;;6211637;23;20412;-73
2022/04/28 13:23:18;;;;;;;13.03;12.53;;;26.20;38.90;;;;;;6211908;23;20756;-73
2022/04/28 13:25:44;;;;;;;13.90;13.30;;;26.30;38.30;;;;;;6211680;23;20447;-73
2022/04/28 13:28:11;;;;;;;13.77;13.17;;;25.70;39.10;;;;;;6212305;23;20435;-73
2022/04/28 13:30:39;;;;;;;13.80;13.20;;;24.90;38.50;;;;;;6212092;23;20420;-73
2022/04/28 13:33:06;;;;;;;13.37;12.67;;;25.00;39.90;;;;;;6211586;23;20412;-73
2022/04/28 13:35:32;;;;;;;13.80;13.20;;;25.20;39.70;;;;;;6211872;23;20744;-73
2022/04/28 13:38:01;;;;;;;14.10;13.50;;;24.80;41.30;;;;;;6209662;23;20409;-72
2022/04/28 13:40:27;;;;;;;13.17;12.67;;;24.70;40.60;;;;;;6211702;23;20416;-73
2022/04/28 13:42:54;;;;;;;14.30;13.60;;;24.50;40.40;;;;;;6211896;23;20884;-73
2022/04/28 13:45:21;;;;;;;13.67;13.10;;;24.70;40.70;;;;;;6211995;23;20713;-74
2022/04/28 13:47:48;;;;;;;13.90;13.20;;;25.00;40.80;;;;;;6211937;23;20412;-73
2022/04/28 13:50:15;;;;;;;13.77;13.27;;;25.40;40.80;;;;;;6211926;23;20415;-74
2022/04/28 13:52:42;;;;;;;13.03;12.53;;;25.20;40.00;;;;;;6211613;23;20451;-73
2022/04/28 13:55:10;;;;;;;13.60;13.00;;;25.00;39.80;;;;;;6212141;23;20416;-73
2022/04/28 13:57:37;;;;;;;13.27;12.67;;;24.70;40.10;;;;;;6211520;23;20957;-73
2022/04/28 14:00:05;;;;;;;13.60;13.00;;;24.30;40.20;;;;;;6211506;23;21116;-73
2022/04/28 14:02:32;;;;;;;12.30;11.80;;;24.10;40.70;;;;;;6211443;23;20409;-73
2022/04/28 14:04:59;;;;;;;12.67;12.07;;;24.10;41.90;;;;;;6211793;23;20413;-73
2022/04/28 14:07:26;;;;;;;13.10;12.37;;;23.80;41.10;;;;;;6212132;23;20412;-72
2022/04/28 14:09:53;;;;;;;12.90;12.40;;;23.20;42.00;;;;;;6211929;23;20408;-72
2022/04/28 14:12:21;;;;;;;13.53;12.93;;;22.80;43.00;;;;;;6211685;23;20832;-73
2022/04/28 14:14:48;;;;;;;13.87;13.17;;;22.80;43.40;;;;;;6209635;23;20412;-73
2022/04/28 14:17:15;;;;;;;13.53;12.83;;;22.90;43.80;;;;;;6211724;23;20732;-73
2022/04/28 14:19:41;;;;;;;13.67;13.00;;;22.90;43.80;;;;;;6211980;23;20432;-73
2022/04/28 14:22:09;;;;;;;14.33;13.53;;;22.70;43.50;;;;;;6212051;23;20404;-72
2022/04/28 14:24:35;;;;;;;12.93;12.33;;;22.70;44.00;;;;;;6211464;23;20436;-73
2022/04/28 14:27:02;;;;;;;13.30;12.80;;;22.50;44.60;;;;;;6211383;23;20447;-72
2022/04/28 14:29:30;;;;;;;13.10;12.60;;;22.90;45.90;;;;;;6211727;23;20416;-73
2022/04/28 14:31:57;;;;;;;13.00;12.40;;;23.00;44.30;;;;;;6211772;23;20440;-73
2022/04/28 14:34:24;;;;;;;14.13;13.53;;;23.50;43.50;;;;;;6211993;23;20412;-74
2022/04/28 14:36:50;;;;;;;14.20;13.60;;;23.60;43.20;;;;;;6211721;23;20470;-73
2022/04/28 14:39:17;;;;;;;14.20;13.50;;;22.90;45.00;;;;;;6211650;23;20694;-74
2022/04/28 14:41:44;;;;;;;13.67;13.07;;;22.10;44.60;;;;;;6211533;23;20409;-73
2022/04/28 14:44:11;;;;;;;13.67;12.90;;;21.40;46.30;;;;;;6212077;23;20472;-73
2022/04/28 14:46:39;;;;;;;13.20;12.70;;;21.10;46.70;;;;;;6211860;23;20412;-73
2022/04/28 14:54:34;;;;;;;13.67;12.97;;;20.20;48.40;;;;;;6211326;23;20379;-73
2022/04/28 14:57:01;;;;;;;13.73;13.13;;;20.00;48.80;;;;;;6211502;23;20408;-73
2022/04/28 14:59:27;;;;;;;13.80;13.10;;;19.90;48.40;;;;;;6211568;23;20416;-73
2022/04/28 15:01:56;;;;;;;14.47;13.43;;;19.90;49.00;;;;;;6211832;23;20408;-73
2022/04/28 15:04:23;;;;;;;13.00;12.50;;;20.10;49.70;;;;;;6213336;23;20519;-73
2022/04/28 15:06:50;;;;;;;13.53;12.93;;;20.10;49.80;;;;;;6213326;23;20782;-73
2022/04/28 15:09:16;;;;;;;12.83;12.30;;;20.20;49.20;;;;;;6213203;23;20405;-73
2022/04/28 15:11:44;;;;;;;14.33;13.50;;;20.10;49.20;;;;;;6212753;23;20445;-73
2022/04/28 15:14:11;;;;;;;13.87;13.27;;;20.00;50.30;;;;;;6213453;23;20511;-73
2022/04/28 15:16:38;;;;;;;13.60;12.90;;;20.00;50.80;;;;;;6213250;23;20420;-73
2022/04/28 15:19:06;;;;;;;13.10;12.60;;;20.00;50.20;;;;;;6212790;23;20424;-73
2022/04/28 15:21:33;;;;;;;14.03;13.43;;;19.90;50.30;;;;;;6212748;23;20892;-73
2022/04/28 15:24:00;;;;;;;13.10;12.43;;;20.00;50.60;;;;;;6212838;23;20405;-73
2022/04/28 15:26:26;;;;;;;13.93;13.33;;;20.10;51.30;;;;;;6212724;23;20447;-73
2022/04/28 15:28:53;;;;;;;13.17;12.57;;;19.90;50.70;;;;;;6213355;23;20412;-73
2022/04/28 15:31:20;;;;;;;12.50;12.00;;;19.80;48.90;;;;;;6212739;23;20436;-73
2022/04/28 15:33:48;;;;;;;13.93;13.23;;;19.70;49.40;;;;;;6212708;23;20601;-72
2022/04/28 15:36:16;;;;;;;13.37;12.63;;;19.70;49.00;;;;;;6212828;23;20428;-73
2022/04/28 15:38:42;;;;;;;14.10;13.50;;;19.70;49.20;;;;;;6213136;23;20415;-74